Wetterdaten: Donnerstag, 09.10.2014
Datum Zeit Temp. A. Feuchte A. Luftdruck Regen Wind Richtung Richtung Sonnenschein ET UV Solar Taupunkt Windchill Windben Empfang
09.10.2014 00:00 10,8 C 86 % 1010,3 hPa 0,0 l/m 0,0 km/h (0 Bft) S-SO 157 0 min 0,000 mm 0,0 UV-I 0 W/m 8,6 C 10,8 C 0,0 km/h (0 Bft) 0,00 %
09.10.2014 00:15 10,8 C 86 % 1010,4 hPa 0,0 l/m 0,0 km/h (0 Bft) SO 125 0 min 0,000 mm 0,0 UV-I 0 W/m 8,6 C 10,8 C 0,0 km/h (0 Bft) 0,00 %
09.10.2014 00:30 10,9 C 87 % 1010,3 hPa 0,0 l/m 0,0 km/h (0 Bft) S 175 0 min 0,000 mm 0,0 UV-I 0 W/m 8,8 C 10,9 C 0,0 km/h (0 Bft) 0,00 %
09.10.2014 00:45 10,8 C 87 % 1010,3 hPa 0,0 l/m 0,0 km/h (0 Bft) NO 43 0 min 0,000 mm 0,0 UV-I 0 W/m 8,7 C 10,8 C 0,0 km/h (0 Bft) 0,00 %
09.10.2014 01:00 10,7 C 87 % 1010,3 hPa 0,0 l/m 0,0 km/h (0 Bft) O 92 0 min 0,000 mm 0,0 UV-I 0 W/m 8,6 C 10,7 C 0,0 km/h (0 Bft) 0,00 %
09.10.2014 01:15 11,1 C 87 % 1010,0 hPa 0,0 l/m 1,8 km/h (1 Bft) O 86 0 min 0,000 mm 0,0 UV-I 0 W/m 9,0 C 11,1 C 4,0 km/h (1 Bft) 0,00 %
09.10.2014 01:30 11,8 C 87 % 1010,0 hPa 0,0 l/m 1,4 km/h (1 Bft) O 92 0 min 0,000 mm 0,0 UV-I 0 W/m 9,7 C 11,8 C 4,0 km/h (1 Bft) 0,00 %
09.10.2014 01:45 11,9 C 87 % 1009,9 hPa 0,0 l/m 0,4 km/h (0 Bft) O-NO 61 0 min 0,000 mm 0,0 UV-I 0 W/m 9,8 C 11,9 C 4,0 km/h (1 Bft) 0,00 %
09.10.2014 02:00 11,9 C 87 % 1010,0 hPa 0,0 l/m 1,4 km/h (1 Bft) SO 140 0 min 0,000 mm 0,0 UV-I 0 W/m 9,8 C 11,9 C 4,0 km/h (1 Bft) 0,00 %
09.10.2014 02:15 11,8 C 87 % 1009,8 hPa 0,0 l/m 0,7 km/h (0 Bft) O-SO 103 0 min 0,000 mm 0,0 UV-I 0 W/m 9,7 C 11,8 C 4,0 km/h (1 Bft) 0,00 %
09.10.2014 02:30 11,9 C 87 % 1009,8 hPa 0,0 l/m 0,7 km/h (0 Bft) O-SO 104 0 min 0,000 mm 0,0 UV-I 0 W/m 9,8 C 11,9 C 4,0 km/h (1 Bft) 0,00 %
09.10.2014 02:45 11,9 C 88 % 1009,9 hPa 0,0 l/m 0,0 km/h (0 Bft) O 95 0 min 0,000 mm 0,0 UV-I 0 W/m 10,0 C 11,9 C 0,0 km/h (0 Bft) 0,00 %
09.10.2014 03:00 12,0 C 88 % 1009,6 hPa 0,0 l/m 0,7 km/h (0 Bft) O-SO 103 0 min 0,000 mm 0,0 UV-I 0 W/m 10,1 C 12,0 C 4,0 km/h (1 Bft) 0,00 %
09.10.2014 03:15 12,0 C 88 % 1009,5 hPa 0,0 l/m 3,2 km/h (1 Bft) O-SO 109 0 min 0,000 mm 0,0 UV-I 0 W/m 10,1 C 12,0 C 4,0 km/h (1 Bft) 0,00 %
09.10.2014 03:30 11,9 C 88 % 1009,7 hPa 0,0 l/m 1,8 km/h (1 Bft) O-SO 123 0 min 0,000 mm 0,0 UV-I 0 W/m 10,0 C 11,9 C 4,0 km/h (1 Bft) 0,00 %
09.10.2014 03:45 11,9 C 88 % 1009,7 hPa 0,0 l/m 1,4 km/h (1 Bft) O 79 0 min 0,000 mm 0,0 UV-I 0 W/m 10,0 C 11,9 C 4,0 km/h (1 Bft) 0,00 %
09.10.2014 04:00 11,9 C 88 % 1009,9 hPa 0,0 l/m 0,0 km/h (0 Bft) NW 314 0 min 0,000 mm 0,0 UV-I 0 W/m 10,0 C 11,9 C 0,0 km/h (0 Bft) 0,00 %
09.10.2014 04:15 11,9 C 88 % 1009,6 hPa 0,0 l/m 0,0 km/h (0 Bft) O 79 0 min 0,000 mm 0,0 UV-I 0 W/m 10,0 C 11,9 C 0,0 km/h (0 Bft) 0,00 %
09.10.2014 04:30 11,9 C 88 % 1009,6 hPa 0,0 l/m 1,4 km/h (1 Bft) O 84 0 min 0,000 mm 0,0 UV-I 0 W/m 10,0 C 11,9 C 4,0 km/h (1 Bft) 0,00 %
09.10.2014 04:45 11,8 C 88 % 1009,8 hPa 0,0 l/m 0,0 km/h (0 Bft) SO 137 0 min 0,000 mm 0,0 UV-I 0 W/m 9,9 C 11,8 C 0,0 km/h (0 Bft) 0,00 %
09.10.2014 05:00 11,8 C 88 % 1009,7 hPa 0,0 l/m 0,0 km/h (0 Bft) SO 132 0 min 0,000 mm 0,0 UV-I 0 W/m 9,9 C 11,8 C 0,0 km/h (0 Bft) 0,00 %
09.10.2014 05:15 11,8 C 88 % 1009,8 hPa 0,0 l/m 0,0 km/h (0 Bft) S-SO 163 0 min 0,000 mm 0,0 UV-I 0 W/m 9,9 C 11,8 C 0,0 km/h (0 Bft) 0,00 %
09.10.2014 05:30 11,8 C 88 % 1009,8 hPa 0,0 l/m 0,4 km/h (0 Bft) O 99 0 min 0,000 mm 0,0 UV-I 0 W/m 9,9 C 11,8 C 4,0 km/h (1 Bft) 0,00 %
09.10.2014 05:45 11,7 C 88 % 1009,7 hPa 0,0 l/m 0,0 km/h (0 Bft) S-SW 213 0 min 0,000 mm 0,0 UV-I 0 W/m 9,8 C 11,7 C 0,0 km/h (0 Bft) 0,00 %
09.10.2014 06:00 11,7 C 88 % 1010,0 hPa 0,0 l/m 0,4 km/h (0 Bft) O-SO 113 0 min 0,000 mm 0,0 UV-I 0 W/m 9,8 C 11,7 C 4,0 km/h (1 Bft) 0,00 %
09.10.2014 06:15 11,6 C 87 % 1009,9 hPa 0,0 l/m 0,4 km/h (0 Bft) O 99 0 min 0,000 mm 0,0 UV-I 0 W/m 9,5 C 11,6 C 4,0 km/h (1 Bft) 0,00 %
09.10.2014 06:30 11,6 C 87 % 1010,2 hPa 0,0 l/m 0,0 km/h (0 Bft) S-SW 192 0 min 0,000 mm 0,0 UV-I 0 W/m 9,5 C 11,6 C 0,0 km/h (0 Bft) 0,00 %
09.10.2014 06:45 11,6 C 87 % 1010,3 hPa 0,0 l/m 0,4 km/h (0 Bft) O-SO 123 0 min 0,000 mm 0,0 UV-I 0 W/m 9,5 C 11,6 C 4,0 km/h (1 Bft) 0,00 %
09.10.2014 07:00 11,6 C 87 % 1010,3 hPa 0,0 l/m 1,8 km/h (1 Bft) O-SO 107 0 min 0,000 mm 0,0 UV-I 0 W/m 9,5 C 11,6 C 4,0 km/h (1 Bft) 0,00 %
09.10.2014 07:15 11,6 C 87 % 1010,7 hPa 0,0 l/m 1,8 km/h (1 Bft) O 86 0 min 0,000 mm 0,0 UV-I 0 W/m 9,5 C 11,6 C 4,0 km/h (1 Bft) 0,00 %
09.10.2014 07:30 11,5 C 87 % 1010,9 hPa 0,0 l/m 0,7 km/h (0 Bft) O-SO 112 0 min 0,000 mm 0,0 UV-I 0 W/m 9,4 C 11,5 C 4,0 km/h (1 Bft) 0,00 %
09.10.2014 07:45 11,4 C 88 % 1010,9 hPa 0,0 l/m 2,2 km/h (1 Bft) O-SO 120 0 min 0,000 mm 0,0 UV-I 2 W/m 9,5 C 11,4 C 4,0 km/h (1 Bft) 0,00 %
09.10.2014 08:00 11,4 C 87 % 1011,0 hPa 0,0 l/m 0,0 km/h (0 Bft) S 176 0 min 0,000 mm 0,0 UV-I 10 W/m 9,3 C 11,4 C 0,0 km/h (0 Bft) 0,00 %
09.10.2014 08:15 11,5 C 87 % 1011,3 hPa 0,0 l/m 0,0 km/h (0 Bft) S 177 0 min 0,000 mm 1,0 UV-I 24 W/m 9,4 C 11,5 C 0,0 km/h (0 Bft) 0,00 %
09.10.2014 08:30 11,6 C 88 % 1011,5 hPa 0,0 l/m 0,0 km/h (0 Bft) SO 125 0 min 0,000 mm 1,0 UV-I 37 W/m 9,7 C 11,6 C 0,0 km/h (0 Bft) 0,00 %
09.10.2014 08:45 11,7 C 88 % 1011,4 hPa 0,0 l/m 1,8 km/h (1 Bft) O 81 0 min 0,000 mm 1,0 UV-I 42 W/m 9,8 C 11,7 C 4,0 km/h (1 Bft) 0,00 %
09.10.2014 09:00 11,7 C 88 % 1011,6 hPa 0,0 l/m 0,4 km/h (0 Bft) S-SO 161 0 min 0,000 mm 1,0 UV-I 56 W/m 9,8 C 11,7 C 4,0 km/h (1 Bft) 0,00 %
09.10.2014 09:15 11,9 C 88 % 1011,9 hPa 0,0 l/m 0,0 km/h (0 Bft) O-SO 110 0 min 0,000 mm 1,0 UV-I 55 W/m 10,0 C 11,9 C 0,0 km/h (0 Bft) 0,00 %
09.10.2014 09:30 12,0 C 88 % 1011,7 hPa 0,0 l/m 0,0 km/h (0 Bft) S-SO 163 0 min 0,000 mm 1,0 UV-I 68 W/m 10,1 C 12,0 C 0,0 km/h (0 Bft) 0,00 %
09.10.2014 09:45 12,1 C 88 % 1012,0 hPa 0,0 l/m 0,0 km/h (0 Bft) O 91 0 min 0,000 mm 1,0 UV-I 78 W/m 10,2 C 12,1 C 0,0 km/h (0 Bft) 0,00 %
09.10.2014 10:00 12,1 C 88 % 1012,0 hPa 0,0 l/m 1,8 km/h (1 Bft) O 80 0 min 0,000 mm 1,0 UV-I 79 W/m 10,2 C 12,1 C 4,0 km/h (1 Bft) 0,00 %
09.10.2014 10:15 12,1 C 88 % 1012,0 hPa 0,0 l/m 0,7 km/h (0 Bft) O 80 0 min 0,000 mm 1,0 UV-I 89 W/m 10,2 C 12,1 C 4,0 km/h (1 Bft) 0,00 %
09.10.2014 10:30 12,2 C 88 % 1012,0 hPa 0,0 l/m 0,0 km/h (0 Bft) NO 55 0 min 0,000 mm 1,0 UV-I 110 W/m 10,3 C 12,2 C 0,0 km/h (0 Bft) 0,00 %
09.10.2014 10:45 12,4 C 87 % 1011,9 hPa 0,0 l/m 0,0 km/h (0 Bft) S-SO 151 0 min 0,000 mm 1,0 UV-I 98 W/m 10,3 C 12,4 C 0,0 km/h (0 Bft) 0,00 %
09.10.2014 11:00 12,5 C 87 % 1012,0 hPa 0,0 l/m 0,7 km/h (0 Bft) O-NO 74 0 min 0,000 mm 1,0 UV-I 109 W/m 10,4 C 12,5 C 4,0 km/h (1 Bft) 0,00 %
09.10.2014 11:15 12,5 C 87 % 1011,8 hPa 0,0 l/m 0,7 km/h (0 Bft) S 171 0 min 0,000 mm 2,0 UV-I 126 W/m 10,4 C 12,5 C 4,0 km/h (1 Bft) 0,00 %
09.10.2014 11:30 13,2 C 85 % 1011,7 hPa 0,0 l/m 0,0 km/h (0 Bft) N-NO 26 0 min 0,000 mm 2,0 UV-I 166 W/m 10,7 C 13,2 C 0,0 km/h (0 Bft) 0,00 %
09.10.2014 11:45 14,0 C 82 % 1011,6 hPa 0,0 l/m 0,0 km/h (0 Bft) SO 133 0 min 0,000 mm 2,0 UV-I 172 W/m 11,0 C 14,0 C 0,0 km/h (0 Bft) 0,00 %
09.10.2014 12:00 14,2 C 81 % 1011,6 hPa 0,0 l/m 0,0 km/h (0 Bft) O-SO 107 0 min 0,000 mm 2,0 UV-I 154 W/m 11,0 C 14,2 C 0,0 km/h (0 Bft) 0,00 %
09.10.2014 12:15 14,2 C 79 % 1011,6 hPa 0,0 l/m 0,0 km/h (0 Bft) O-SO 115 0 min 0,000 mm 2,0 UV-I 156 W/m 10,6 C 14,2 C 0,0 km/h (0 Bft) 0,00 %
09.10.2014 12:30 15,2 C 74 % 1010,9 hPa 0,0 l/m 0,0 km/h (0 Bft) S-SO 163 0 min 0,000 mm 3,0 UV-I 231 W/m 10,6 C 15,2 C 0,0 km/h (0 Bft) 0,00 %
09.10.2014 12:45 15,6 C 72 % 1010,7 hPa 0,0 l/m 0,0 km/h (0 Bft) O-SO 112 0 min 0,000 mm 3,0 UV-I 316 W/m 10,6 C 15,6 C 0,0 km/h (0 Bft) 0,00 %
09.10.2014 13:00 16,3 C 71 % 1010,0 hPa 0,0 l/m 0,4 km/h (0 Bft) W-SW 256 15 min 0,000 mm 3,0 UV-I 338 W/m 11,0 C 16,3 C 4,0 km/h (1 Bft) 0,00 %
09.10.2014 13:15 15,9 C 72 % 1010,0 hPa 0,0 l/m 1,4 km/h (1 Bft) NO 42 0 min 0,000 mm 3,0 UV-I 280 W/m 10,9 C 15,9 C 4,0 km/h (1 Bft) 0,00 %
09.10.2014 13:30 16,1 C 71 % 1010,1 hPa 0,0 l/m 0,0 km/h (0 Bft) N-NW 345 0 min 0,000 mm 3,0 UV-I 301 W/m 10,8 C 16,1 C 0,0 km/h (0 Bft) 0,00 %
09.10.2014 13:45 16,0 C 72 % 1009,6 hPa 0,0 l/m 0,0 km/h (0 Bft) SO 125 15 min 0,000 mm 2,0 UV-I 320 W/m 11,0 C 16,0 C 0,0 km/h (0 Bft) 0,00 %
09.10.2014 14:00 16,3 C 70 % 1009,5 hPa 0,0 l/m 0,0 km/h (0 Bft) S 189 15 min 0,000 mm 2,0 UV-I 330 W/m 10,8 C 16,3 C 0,0 km/h (0 Bft) 0,00 %
09.10.2014 14:15 16,7 C 70 % 1009,1 hPa 0,0 l/m 0,0 km/h (0 Bft) O-SO 116 15 min 0,000 mm 2,0 UV-I 367 W/m 11,2 C 16,7 C 0,0 km/h (0 Bft) 0,00 %
09.10.2014 14:30 17,0 C 71 % 1008,9 hPa 0,0 l/m 2,9 km/h (1 Bft) O-NO 73 15 min 0,000 mm 2,0 UV-I 370 W/m 11,7 C 17,0 C 4,0 km/h (1 Bft) 0,00 %
09.10.2014 14:45 17,3 C 70 % 1008,7 hPa 0,0 l/m 4,0 km/h (1 Bft) O 96 15 min 0,000 mm 2,0 UV-I 400 W/m 11,8 C 17,3 C 4,0 km/h (1 Bft) 0,00 %
09.10.2014 15:00 17,6 C 70 % 1008,5 hPa 0,0 l/m 0,4 km/h (0 Bft) NO 52 15 min 0,000 mm 2,0 UV-I 410 W/m 12,1 C 17,6 C 4,0 km/h (1 Bft) 0,00 %
09.10.2014 15:15 17,8 C 70 % 1008,2 hPa 0,0 l/m 1,4 km/h (1 Bft) O 83 15 min 0,000 mm 2,0 UV-I 411 W/m 12,3 C 17,8 C 4,0 km/h (1 Bft) 0,00 %
09.10.2014 15:30 18,1 C 70 % 1008,2 hPa 0,0 l/m 0,7 km/h (0 Bft) S-SO 157 15 min 0,000 mm 2,0 UV-I 422 W/m 12,5 C 18,1 C 4,0 km/h (1 Bft) 0,00 %
09.10.2014 15:45 18,3 C 69 % 1008,3 hPa 0,0 l/m 0,0 km/h (0 Bft) O-SO 114 15 min 0,000 mm 1,0 UV-I 415 W/m 12,5 C 18,3 C 0,0 km/h (0 Bft) 0,00 %
09.10.2014 16:00 18,3 C 68 % 1008,1 hPa 0,0 l/m 2,9 km/h (1 Bft) O 79 15 min 0,000 mm 1,0 UV-I 410 W/m 12,3 C 18,3 C 4,0 km/h (1 Bft) 0,00 %
09.10.2014 16:15 18,4 C 69 % 1007,9 hPa 0,0 l/m 2,2 km/h (1 Bft) N-NO 26 15 min 0,000 mm 1,0 UV-I 405 W/m 12,6 C 18,4 C 4,0 km/h (1 Bft) 0,00 %
09.10.2014 16:30 18,3 C 68 % 1008,8 hPa 0,0 l/m 0,4 km/h (0 Bft) N-NO 26 15 min 0,000 mm 1,0 UV-I 400 W/m 12,3 C 18,3 C 4,0 km/h (1 Bft) 0,00 %
09.10.2014 16:45 18,6 C 66 % 1008,6 hPa 0,0 l/m 1,4 km/h (1 Bft) S 179 15 min 0,000 mm 1,0 UV-I 411 W/m 12,1 C 18,6 C 4,0 km/h (1 Bft) 0,00 %
09.10.2014 17:00 18,9 C 65 % 1008,5 hPa 0,0 l/m 0,0 km/h (0 Bft) SO 128 15 min 0,000 mm 1,0 UV-I 381 W/m 12,2 C 18,9 C 0,0 km/h (0 Bft) 0,00 %
09.10.2014 17:15 18,4 C 67 % 1008,8 hPa 0,0 l/m 1,4 km/h (1 Bft) S 174 15 min 0,000 mm 1,0 UV-I 328 W/m 12,2 C 18,4 C 4,0 km/h (1 Bft) 0,00 %
09.10.2014 17:30 18,0 C 68 % 1008,8 hPa 0,0 l/m 1,4 km/h (1 Bft) O-NO 69 15 min 0,000 mm 1,0 UV-I 248 W/m 12,0 C 18,0 C 4,0 km/h (1 Bft) 0,00 %
09.10.2014 17:45 17,4 C 69 % 1009,1 hPa 0,0 l/m 0,0 km/h (0 Bft) O 86 15 min 0,000 mm 0,0 UV-I 107 W/m 11,7 C 17,4 C 0,0 km/h (0 Bft) 0,00 %
09.10.2014 18:00 16,7 C 71 % 1009,3 hPa 0,0 l/m 0,7 km/h (0 Bft) O-SO 110 15 min 0,000 mm 0,0 UV-I 70 W/m 11,4 C 16,7 C 4,0 km/h (1 Bft) 0,00 %
09.10.2014 18:15 15,8 C 74 % 1009,4 hPa 0,0 l/m 0,0 km/h (0 Bft) SO 138 15 min 0,000 mm 0,0 UV-I 27 W/m 11,2 C 15,8 C 0,0 km/h (0 Bft) 0,00 %
09.10.2014 18:30 15,1 C 77 % 1009,7 hPa 0,0 l/m 0,0 km/h (0 Bft) O-SO 109 0 min 0,000 mm 0,0 UV-I 0 W/m 11,1 C 15,1 C 0,0 km/h (0 Bft) 0,00 %
09.10.2014 18:45 14,8 C 78 % 1009,8 hPa 0,0 l/m 0,0 km/h (0 Bft) O-SO 117 0 min 0,000 mm 0,0 UV-I 0 W/m 11,0 C 14,8 C 0,0 km/h (0 Bft) 0,00 %
09.10.2014 19:00 14,4 C 80 % 1009,8 hPa 0,0 l/m 2,9 km/h (1 Bft) O 89 0 min 0,000 mm 0,0 UV-I 0 W/m 11,0 C 14,4 C 4,0 km/h (1 Bft) 0,00 %
09.10.2014 19:15 14,1 C 81 % 1009,9 hPa 0,0 l/m 0,0 km/h (0 Bft) SO 131 0 min 0,000 mm 0,0 UV-I 0 W/m 10,9 C 14,1 C 0,0 km/h (0 Bft) 0,00 %
09.10.2014 19:30 13,5 C 83 % 1010,0 hPa 0,0 l/m 0,7 km/h (0 Bft) O 97 0 min 0,000 mm 0,0 UV-I 0 W/m 10,7 C 13,5 C 4,0 km/h (1 Bft) 0,00 %
09.10.2014 19:45 13,2 C 83 % 1010,1 hPa 0,0 l/m 0,0 km/h (0 Bft) O-SO 111 0 min 0,000 mm 0,0 UV-I 0 W/m 10,4 C 13,2 C 0,0 km/h (0 Bft) 0,00 %
09.10.2014 20:00 12,9 C 83 % 1010,4 hPa 0,0 l/m 0,0 km/h (0 Bft) S-SO 157 0 min 0,000 mm 0,0 UV-I 0 W/m 10,1 C 12,9 C 0,0 km/h (0 Bft) 0,00 %
09.10.2014 20:15 12,7 C 84 % 1010,5 hPa 0,0 l/m 0,0 km/h (0 Bft) SO 141 0 min 0,000 mm 0,0 UV-I 0 W/m 10,1 C 12,7 C 0,0 km/h (0 Bft) 0,00 %
09.10.2014 20:30 12,5 C 84 % 1010,5 hPa 0,0 l/m 0,0 km/h (0 Bft) SO 130 0 min 0,000 mm 0,0 UV-I 0 W/m 9,9 C 12,5 C 0,0 km/h (0 Bft) 0,00 %
09.10.2014 20:45 12,4 C 85 % 1010,5 hPa 0,0 l/m 0,0 km/h (0 Bft) O-NO 70 0 min 0,000 mm 0,0 UV-I 0 W/m 9,9 C 12,4 C 0,0 km/h (0 Bft) 0,00 %
09.10.2014 21:00 12,1 C 85 % 1010,7 hPa 0,0 l/m 0,7 km/h (0 Bft) O-SO 115 0 min 0,000 mm 0,0 UV-I 0 W/m 9,7 C 12,1 C 4,0 km/h (1 Bft) 0,00 %
09.10.2014 21:15 12,2 C 85 % 1010,7 hPa 0,0 l/m 0,0 km/h (0 Bft) SO 133 0 min 0,000 mm 0,0 UV-I 0 W/m 9,8 C 12,2 C 0,0 km/h (0 Bft) 0,00 %
09.10.2014 21:30 12,1 C 86 % 1010,9 hPa 0,0 l/m 0,0 km/h (0 Bft) S-SW 206 0 min 0,000 mm 0,0 UV-I 0 W/m 9,8 C 12,1 C 0,0 km/h (0 Bft) 0,00 %
09.10.2014 21:45 12,4 C 86 % 1010,9 hPa 0,0 l/m 1,8 km/h (1 Bft) O 101 0 min 0,000 mm 0,0 UV-I 0 W/m 10,1 C 12,4 C 4,0 km/h (1 Bft) 0,00 %
09.10.2014 22:00 12,8 C 86 % 1010,9 hPa 0,0 l/m 0,0 km/h (0 Bft) S 173 0 min 0,000 mm 0,0 UV-I 0 W/m 10,5 C 12,8 C 0,0 km/h (0 Bft) 0,00 %
09.10.2014 22:15 12,9 C 87 % 1011,0 hPa 0,0 l/m 0,0 km/h (0 Bft) O-SO 113 0 min 0,000 mm 0,0 UV-I 0 W/m 10,8 C 12,9 C 0,0 km/h (0 Bft) 0,00 %
09.10.2014 22:30 13,1 C 87 % 1010,7 hPa 0,0 l/m 4,0 km/h (1 Bft) O 97 0 min 0,000 mm 0,0 UV-I 0 W/m 11,0 C 13,1 C 11,9 km/h (2 Bft) 0,00 %
09.10.2014 22:45 13,2 C 87 % 1011,0 hPa 0,0 l/m 0,4 km/h (0 Bft) O 93 0 min 0,000 mm 0,0 UV-I 0 W/m 11,1 C 13,2 C 4,0 km/h (1 Bft) 0,00 %
09.10.2014 23:00 13,0 C 87 % 1011,2 hPa 0,0 l/m 0,0 km/h (0 Bft) SO 139 0 min 0,000 mm 0,0 UV-I 0 W/m 10,9 C 13,0 C 0,0 km/h (0 Bft) 0,00 %
09.10.2014 23:15 12,9 C 87 % 1010,9 hPa 0,0 l/m 0,0 km/h (0 Bft) SO 143 0 min 0,000 mm 0,0 UV-I 0 W/m 10,8 C 12,9 C 0,0 km/h (0 Bft) 0,00 %
09.10.2014 23:30 12,7 C 87 % 1011,1 hPa 0,0 l/m 0,0 km/h (0 Bft) S 176 0 min 0,000 mm 0,0 UV-I 0 W/m 10,6 C 12,7 C 0,0 km/h (0 Bft) 0,00 %
09.10.2014 23:45 12,8 C 87 % 1011,1 hPa 0,0 l/m 0,0 km/h (0 Bft) S 174 0 min 0,000 mm 0,0 UV-I 0 W/m 10,7 C 12,8 C 0,0 km/h (0 Bft) 0,00 %
_ Min-Zeit 01:00 17:00 16:15 - 00:00 - - - - - - 00:00 01:00 00:00 00:00
Minimum _ 10,7 C 65 % 1007,9 hPa - 0,0 km/h (0 Bft) - - - - - - 8,6 C 10,7 C 0,0 km/h (0 Bft) 0,00 %
_ Max-Zeit 17:00 02:45 09:45 00:00 14:45 - - 13:00 00:00 12:30 15:30 16:15 17:00 22:30 00:00
Maximum _ 18,9 C 88 % 1012,0 hPa 0,0 l/m 4,0 km/h
O (1 Bft)
- - 15 min 0,000 mm 3,0 UV-I 422 W/m 12,6 C 18,9 C 11,9 km/h
O (2 Bft)
0,00 %
Durchschnitt _ 13,5 C 82 % 1010,2 hPa #0,0 l/m 0,6 km/h (0 Bft) O - #5:00 h #0,000 mm 1,6 UV-I 217 W/m 10,4 C 13,5 C 2,0 km/h (1 Bft) 0,00 %